Time;durP1;ratioP1;P1;durP2;ratioP2;P2;SDS_P1;SDS_P2;PMS_P1;PMS_P2;Temp;Humidity;BMP_temperature;BMP_pressure;BME280_temperature;BME280_humidity;BME280_pressure;Samples;Min_cycle;Max_cycle;Signal;HPM_P1;HPM_P2
2022/03/18 00:02:08;;;;;;;5.55;3.90;;;18.70;38.70;;;;;;5075635;28;20026;-84
2022/03/18 00:04:34;;;;;;;5.20;3.85;;;18.70;38.70;;;;;;5075456;28;20544;-87
2022/03/18 00:07:00;;;;;;;5.28;3.40;;;18.70;38.70;;;;;;5075021;28;20547;-84
2022/03/18 00:09:28;;;;;;;5.25;3.80;;;18.70;38.70;;;;;;5058023;28;20459;-86
2022/03/18 00:11:54;;;;;;;5.93;3.50;;;18.70;38.70;;;;;;5075035;28;20374;-86
2022/03/18 00:14:21;;;;;;;7.40;3.97;;;18.70;38.70;;;;;;5057759;28;20009;-85
2022/03/18 00:16:46;;;;;;;6.63;3.72;;;18.70;38.70;;;;;;5074620;28;20482;-88
2022/03/18 00:19:12;;;;;;;5.00;3.40;;;18.70;38.70;;;;;;5074638;28;20019;-85
2022/03/18 00:21:40;;;;;;;7.00;3.63;;;18.70;38.70;;;;;;5076665;28;20542;-85
2022/03/18 00:24:07;;;;;;;5.18;3.50;;;18.70;38.80;;;;;;5061667;28;20036;-86
2022/03/18 00:26:33;;;;;;;6.15;4.00;;;18.60;38.80;;;;;;5078536;28;20126;-86
2022/03/18 00:28:59;;;;;;;6.13;4.07;;;18.70;38.80;;;;;;5078929;28;20044;-84
2022/03/18 00:31:25;;;;;;;6.65;3.75;;;18.70;38.80;;;;;;5078669;28;20024;-84
2022/03/18 00:33:51;;;;;;;5.97;3.97;;;18.70;39.40;;;;;;5061816;28;20027;-86
2022/03/18 00:36:17;;;;;;;6.60;4.20;;;18.60;38.90;;;;;;5078026;28;20016;-86
2022/03/18 00:38:44;;;;;;;6.43;3.90;;;18.60;38.90;;;;;;5078104;28;20482;-85
2022/03/18 00:41:09;;;;;;;7.00;4.10;;;18.60;38.90;;;;;;5077871;28;20020;-86
2022/03/18 00:43:35;;;;;;;5.82;3.92;;;18.60;38.90;;;;;;5077772;28;20062;-85
2022/03/18 00:46:03;;;;;;;5.53;4.20;;;18.60;38.90;;;;;;5077725;28;20016;-88
2022/03/18 00:53:59;;;;;;;6.97;4.05;;;18.60;38.90;;;;;;5066403;28;20555;-84
2022/03/18 00:56:25;;;;;;;6.80;4.30;;;18.60;38.90;;;;;;5077743;28;20009;-85
2022/03/18 00:58:51;;;;;;;6.68;3.95;;;18.60;38.90;;;;;;5077276;28;20024;-86
2022/03/18 01:01:16;;;;;;;7.93;4.22;;;18.60;38.90;;;;;;5060532;28;20082;-83
2022/03/18 01:03:42;;;;;;;6.38;4.07;;;18.60;39.00;;;;;;5077346;28;20032;-85
2022/03/18 01:06:08;;;;;;;6.53;4.07;;;18.50;38.90;;;;;;5077436;28;20020;-85
2022/03/18 01:08:35;;;;;;;7.20;4.20;;;18.60;39.00;;;;;;5077522;28;20089;-87
2022/03/18 01:11:03;;;;;;;8.30;4.05;;;18.50;39.00;;;;;;5060597;28;20489;-86
2022/03/18 01:13:30;;;;;;;7.60;4.30;;;18.50;38.90;;;;;;5060248;28;20016;-87
2022/03/18 01:15:58;;;;;;;5.50;4.07;;;18.50;39.00;;;;;;5076912;28;20482;-87
2022/03/18 01:18:26;;;;;;;4.93;3.78;;;18.50;39.00;;;;;;5076672;28;20048;-85
2022/03/18 01:20:52;;;;;;;7.10;4.30;;;18.50;39.00;;;;;;5059963;28;20043;-85
2022/03/18 01:23:18;;;;;;;7.15;4.38;;;18.50;39.00;;;;;;5076925;28;20036;-86
2022/03/18 01:25:46;;;;;;;6.85;4.50;;;18.50;39.00;;;;;;5094951;28;20027;-86
2022/03/18 01:28:12;;;;;;;6.70;4.43;;;18.50;39.00;;;;;;5060098;28;20062;-84
2022/03/18 01:30:39;;;;;;;6.63;4.43;;;18.50;38.90;;;;;;5059168;28;20036;-86
2022/03/18 01:33:06;;;;;;;6.57;4.43;;;18.50;38.90;;;;;;5075728;28;20020;-85
2022/03/18 01:35:32;;;;;;;7.15;4.53;;;18.50;39.00;;;;;;5076762;28;20382;-85
2022/03/18 01:37:58;;;;;;;5.78;4.43;;;18.50;39.00;;;;;;5076479;28;20030;-85
2022/03/18 01:40:24;;;;;;;6.25;4.28;;;18.50;39.00;;;;;;5059262;28;20036;-85
2022/03/18 01:42:50;;;;;;;8.50;4.70;;;18.50;39.00;;;;;;5059725;28;20018;-85
2022/03/18 01:45:19;;;;;;;5.68;4.13;;;18.50;39.00;;;;;;5076333;28;20020;-84
2022/03/18 01:47:45;;;;;;;5.70;4.05;;;18.40;39.00;;;;;;5060285;28;20031;-86
2022/03/18 01:50:11;;;;;;;6.22;4.80;;;18.40;39.10;;;;;;5076938;28;20031;-87
2022/03/18 01:52:38;;;;;;;6.50;4.43;;;18.40;39.10;;;;;;5060238;28;20016;-85
2022/03/18 01:55:04;;;;;;;6.25;4.47;;;18.40;39.10;;;;;;5077277;28;20024;-84
2022/03/18 01:57:32;;;;;;;5.68;4.57;;;18.40;39.00;;;;;;5060027;28;20055;-87
2022/03/18 01:59:58;;;;;;;5.53;4.57;;;18.40;39.00;;;;;;5094538;28;20023;-87
2022/03/18 02:02:24;;;;;;;6.15;4.38;;;18.40;39.10;;;;;;5060262;28;20024;-86
2022/03/18 02:04:50;;;;;;;6.70;4.35;;;18.40;39.20;;;;;;5078346;28;20016;-85
2022/03/18 02:07:16;;;;;;;5.53;4.47;;;18.40;39.20;;;;;;5077194;28;20016;-88
2022/03/18 02:09:43;;;;;;;6.53;4.13;;;18.40;39.10;;;;;;5059215;28;20085;-85
2022/03/18 02:12:09;;;;;;;6.78;4.72;;;18.40;39.10;;;;;;5075977;28;20012;-86
2022/03/18 02:14:45;;;;;;;7.65;4.75;;;18.40;39.10;;;;;;5075859;28;20015;-86
2022/03/18 02:17:12;;;;;;;5.82;4.72;;;18.40;39.10;;;;;;5059276;28;20127;-85
2022/03/18 02:19:39;;;;;;;8.02;4.50;;;18.40;39.10;;;;;;5075859;28;20024;-84
2022/03/18 02:22:13;;;;;;;6.95;4.85;;;18.40;39.00;;;;;;5076315;28;20020;-85
2022/03/18 02:24:41;;;;;;;6.43;4.80;;;18.40;39.00;;;;;;5076754;28;20047;-86
2022/03/18 02:27:07;;;;;;;6.78;4.57;;;18.40;39.00;;;;;;5076666;28;20016;-86
2022/03/18 02:29:33;;;;;;;6.35;4.35;;;18.40;39.00;;;;;;5059566;28;20036;-86
2022/03/18 02:32:00;;;;;;;6.18;4.63;;;18.40;39.00;;;;;;5076075;28;20020;-86
2022/03/18 02:34:27;;;;;;;6.88;4.68;;;18.40;38.90;;;;;;5060196;28;20050;-86
2022/03/18 02:36:54;;;;;;;7.07;4.68;;;18.40;39.00;;;;;;5077769;28;20027;-86
2022/03/18 02:39:19;;;;;;;6.65;4.72;;;18.40;39.00;;;;;;5059817;28;20125;-86
2022/03/18 02:41:45;;;;;;;6.63;4.70;;;18.40;39.00;;;;;;5060127;28;20026;-88
2022/03/18 02:44:11;;;;;;;5.88;4.53;;;18.40;38.90;;;;;;5078075;28;20024;-85
2022/03/18 02:46:37;;;;;;;7.40;4.80;;;18.40;38.90;;;;;;5065375;28;20440;-85
2022/03/18 02:49:03;;;;;;;7.07;4.60;;;18.40;38.90;;;;;;5070361;28;20646;-85
2022/03/18 02:51:37;;;;;;;6.82;4.85;;;18.40;38.90;;;;;;5089407;28;20796;-83
2022/03/18 02:54:05;;;;;;;6.75;4.72;;;18.30;38.90;;;;;;5088731;28;20013;-84
2022/03/18 02:56:31;;;;;;;5.95;4.30;;;18.40;39.00;;;;;;5089966;28;20046;-84
2022/03/18 02:58:57;;;;;;;7.82;5.10;;;18.30;38.90;;;;;;5088414;28;20020;-85
2022/03/18 03:01:25;;;;;;;7.05;4.82;;;18.30;39.00;;;;;;5087486;28;20017;-85
2022/03/18 03:03:51;;;;;;;6.75;4.75;;;18.30;39.00;;;;;;5073719;28;20020;-85
2022/03/18 03:09:01;;;;;;;6.07;4.75;;;18.30;39.00;;;;;;5088372;28;20105;-85
2022/03/18 03:11:29;;;;;;;6.13;4.82;;;18.40;38.80;;;;;;5099427;28;20016;-84
2022/03/18 03:13:55;;;;;;;6.18;4.78;;;18.40;38.90;;;;;;5077585;28;20013;-85
2022/03/18 03:16:21;;;;;;;7.50;4.80;;;18.30;38.80;;;;;;5075609;28;20027;-86
2022/03/18 03:18:48;;;;;;;6.72;5.13;;;18.30;38.90;;;;;;5075329;28;20558;-85
2022/03/18 03:21:14;;;;;;;7.15;5.07;;;18.30;39.00;;;;;;5075206;28;20023;-85
2022/03/18 03:23:41;;;;;;;6.60;5.00;;;18.30;39.10;;;;;;5075271;28;20426;-86
2022/03/18 03:26:07;;;;;;;6.85;5.20;;;18.20;39.10;;;;;;5075165;28;20382;-85
2022/03/18 03:28:32;;;;;;;7.53;4.90;;;18.20;39.10;;;;;;5074778;28;20020;-86
2022/03/18 03:30:58;;;;;;;6.82;5.07;;;18.30;39.10;;;;;;5075416;28;20383;-85
2022/03/18 03:33:27;;;;;;;6.82;5.00;;;18.30;39.10;;;;;;5074874;28;20035;-85
2022/03/18 03:35:54;;;;;;;6.55;5.07;;;18.30;39.10;;;;;;5058489;28;20012;-86
2022/03/18 03:38:21;;;;;;;6.50;5.05;;;18.30;39.10;;;;;;5074803;28;20382;-85
2022/03/18 03:40:47;;;;;;;6.65;5.10;;;18.20;39.00;;;;;;5058405;28;20111;-85
2022/03/18 03:43:13;;;;;;;7.78;5.32;;;18.30;38.90;;;;;;5074930;28;20509;-86
2022/03/18 03:45:39;;;;;;;8.68;5.28;;;18.30;39.00;;;;;;5074699;28;20100;-86
2022/03/18 03:48:05;;;;;;;7.50;5.32;;;18.20;39.00;;;;;;5074880;28;20099;-85
2022/03/18 03:50:32;;;;;;;7.60;5.28;;;18.20;39.00;;;;;;5074926;28;20031;-85
2022/03/18 03:52:59;;;;;;;7.13;4.90;;;18.20;39.00;;;;;;5074990;28;20028;-86
2022/03/18 03:55:26;;;;;;;6.90;5.03;;;18.20;39.00;;;;;;5075247;28;20036;-85
2022/03/18 03:57:52;;;;;;;7.63;4.93;;;18.20;39.00;;;;;;5078831;28;20398;-86
2022/03/18 04:00:17;;;;;;;6.93;5.03;;;18.20;39.00;;;;;;5078758;28;20020;-85
2022/03/18 04:02:44;;;;;;;7.43;5.55;;;18.20;38.90;;;;;;5078543;28;20579;-86
2022/03/18 04:05:10;;;;;;;6.75;5.40;;;18.20;38.90;;;;;;5061982;28;20478;-87
2022/03/18 04:07:40;;;;;;;6.57;5.10;;;18.20;39.00;;;;;;5078684;28;20020;-86
2022/03/18 04:10:06;;;;;;;;;;;18.20;38.90;;;;;;5078767;28;20024;-84
2022/03/18 04:12:35;;;;;;;6.57;5.07;;;18.20;38.90;;;;;;5078450;28;19904;-85
2022/03/18 04:15:04;;;;;;;7.20;5.00;;;18.30;38.90;;;;;;5061900;28;20107;-85
2022/03/18 04:17:43;;;;;;;7.00;5.40;;;18.30;38.90;;;;;;5078461;28;20043;-86
2022/03/18 04:20:14;;;;;;;7.32;5.50;;;18.20;38.90;;;;;;5078332;28;20023;-85
2022/03/18 04:22:40;;;;;;;7.72;5.57;;;18.20;38.90;;;;;;5062015;28;20020;-85
2022/03/18 04:25:07;;;;;;;7.65;5.30;;;18.20;38.90;;;;;;5061469;28;20020;-86
2022/03/18 04:27:33;;;;;;;7.53;5.65;;;18.20;39.10;;;;;;5061475;28;20043;-86
2022/03/18 04:29:58;;;;;;;6.82;5.35;;;18.20;39.00;;;;;;5078698;28;20020;-84
2022/03/18 04:32:24;;;;;;;6.30;4.75;;;18.10;39.00;;;;;;5078027;28;20367;-86
2022/03/18 04:34:50;;;;;;;6.68;5.10;;;18.20;39.00;;;;;;5061588;28;20051;-85
2022/03/18 04:37:16;;;;;;;7.35;5.60;;;18.20;39.00;;;;;;5077804;28;20440;-85
2022/03/18 04:39:42;;;;;;;7.15;5.28;;;18.20;38.90;;;;;;5061120;28;20078;-85
2022/03/18 04:42:09;;;;;;;6.38;5.18;;;18.20;39.00;;;;;;5077862;28;20394;-85
2022/03/18 04:44:35;;;;;;;8.27;5.40;;;18.10;39.00;;;;;;5077971;28;20016;-85
2022/03/18 04:47:01;;;;;;;6.75;5.00;;;18.20;39.00;;;;;;5077285;28;20042;-85
2022/03/18 04:49:27;;;;;;;7.78;5.45;;;18.20;38.80;;;;;;5077948;28;20405;-85
2022/03/18 04:51:53;;;;;;;8.25;5.90;;;18.30;38.80;;;;;;5077811;28;20020;-84
2022/03/18 04:54:18;;;;;;;6.97;5.18;;;18.20;38.70;;;;;;5077720;28;20008;-85
2022/03/18 04:59:29;;;;;;;6.60;4.95;;;18.30;38.70;;;;;;5080312;28;20046;-84
2022/03/18 05:01:55;;;;;;;6.53;5.13;;;18.40;38.40;;;;;;5095602;28;20458;-84
2022/03/18 05:04:21;;;;;;;7.50;5.50;;;18.60;38.20;;;;;;5062930;28;20103;-86
2022/03/18 05:06:49;;;;;;;8.35;5.47;;;18.80;37.80;;;;;;5070403;28;20027;-86
2022/03/18 05:09:15;;;;;;;7.75;5.57;;;18.90;37.50;;;;;;5071113;28;20420;-85
2022/03/18 05:11:42;;;;;;;6.72;5.10;;;19.00;37.20;;;;;;5087461;28;20028;-85
2022/03/18 05:14:08;;;;;;;7.22;5.35;;;19.10;37.00;;;;;;5097556;28;20377;-84
2022/03/18 05:16:34;;;;;;;5.57;4.97;;;19.20;36.90;;;;;;5079103;28;20012;-85
2022/03/18 05:19:00;;;;;;;6.88;5.30;;;19.30;36.60;;;;;;5085894;28;20056;-84
2022/03/18 05:21:26;;;;;;;7.45;5.38;;;19.40;36.40;;;;;;5085907;28;20024;-87
2022/03/18 05:23:53;;;;;;;6.70;5.38;;;19.50;36.20;;;;;;5088006;28;20042;-87
2022/03/18 05:26:19;;;;;;;6.90;5.30;;;19.60;36.10;;;;;;5087087;28;20440;-86
2022/03/18 05:28:46;;;;;;;6.47;4.65;;;19.60;35.90;;;;;;5062856;28;20024;-86
2022/03/18 05:31:12;;;;;;;6.50;4.70;;;19.70;35.80;;;;;;5078143;28;20028;-87
2022/03/18 05:33:40;;;;;;;6.53;5.00;;;19.80;35.50;;;;;;5081625;28;20087;-86
2022/03/18 05:36:06;;;;;;;7.28;5.00;;;19.90;35.30;;;;;;5082241;28;20020;-84
2022/03/18 05:38:32;;;;;;;7.00;5.00;;;20.00;35.20;;;;;;5062171;28;20034;-85
2022/03/18 05:40:58;;;;;;;7.25;5.15;;;20.00;35.10;;;;;;5060260;28;20332;-84
2022/03/18 05:43:24;;;;;;;6.80;5.07;;;20.00;34.90;;;;;;5060640;28;20122;-85
2022/03/18 05:45:50;;;;;;;6.00;5.18;;;20.20;34.90;;;;;;5078146;28;20062;-85
2022/03/18 05:48:16;;;;;;;6.85;4.90;;;20.20;34.60;;;;;;5077039;28;20024;-85
2022/03/18 05:50:42;;;;;;;7.45;5.20;;;20.30;34.60;;;;;;5060578;28;20012;-84
2022/03/18 05:53:08;;;;;;;6.03;5.00;;;20.40;34.50;;;;;;5081302;28;20107;-86
2022/03/18 05:58:19;;;;;;;5.80;4.80;;;20.50;34.20;;;;;;5081160;28;20028;-85
2022/03/18 06:00:45;;;;;;;6.15;4.95;;;20.60;34.00;;;;;;5060044;28;20024;-85
2022/03/18 06:03:12;;;;;;;6.53;4.65;;;20.70;33.80;;;;;;5077157;28;20013;-85
2022/03/18 06:05:42;;;;;;;6.85;4.70;;;20.80;33.80;;;;;;5060447;28;20024;-86
2022/03/18 06:13:39;;;;;;;5.85;4.88;;;20.90;33.50;;;;;;5079009;28;20054;-85
2022/03/18 06:16:05;;;;;;;6.47;4.93;;;21.00;33.40;;;;;;5075674;28;20059;-86
2022/03/18 06:18:32;;;;;;;6.72;4.95;;;21.10;33.20;;;;;;5055635;28;20045;-85
2022/03/18 06:20:57;;;;;;;6.53;5.07;;;21.20;33.20;;;;;;5055906;28;20382;-87
2022/03/18 06:23:24;;;;;;;5.97;4.95;;;21.40;33.00;;;;;;5073088;28;20023;-86
2022/03/18 06:25:50;;;;;;;7.13;4.97;;;22.00;32.20;;;;;;5073655;28;20036;-87
2022/03/18 06:28:18;;;;;;;5.28;4.65;;;22.40;31.40;;;;;;5056207;28;20038;-88
2022/03/18 06:30:44;;;;;;;6.13;4.68;;;22.80;30.70;;;;;;5060689;28;20017;-86
2022/03/18 06:33:10;;;;;;;6.53;4.68;;;22.80;30.50;;;;;;5083254;28;20004;-84
2022/03/18 06:35:36;;;;;;;6.57;4.78;;;22.70;30.70;;;;;;5068606;28;20082;-86
2022/03/18 06:38:04;;;;;;;6.40;4.57;;;22.60;30.90;;;;;;5083855;28;20015;-85
2022/03/18 06:40:30;;;;;;;5.30;4.45;;;22.70;30.90;;;;;;5071350;28;20055;-88
2022/03/18 06:42:58;;;;;;;6.50;4.57;;;22.70;30.80;;;;;;5092772;28;20009;-86
2022/03/18 06:45:26;;;;;;;6.10;4.82;;;22.90;30.70;;;;;;5069149;28;20033;-85
2022/03/18 06:47:53;;;;;;;5.78;4.35;;;22.90;30.60;;;;;;5084635;28;20023;-87
2022/03/18 06:50:20;;;;;;;7.68;5.07;;;23.00;30.60;;;;;;5083920;28;20025;-84
2022/03/18 06:52:49;;;;;;;5.80;4.80;;;23.00;30.60;;;;;;5084791;28;20076;-86
2022/03/18 06:55:15;;;;;;;5.90;4.75;;;23.10;30.50;;;;;;5071504;28;20131;-85
2022/03/18 06:57:42;;;;;;;6.35;4.63;;;23.20;30.40;;;;;;5087337;28;20467;-87
2022/03/18 07:00:08;;;;;;;5.72;4.80;;;23.30;30.30;;;;;;5087636;28;20031;-85
2022/03/18 07:02:35;;;;;;;8.63;4.65;;;23.30;30.30;;;;;;5051991;28;20013;-85
2022/03/18 07:05:04;;;;;;;5.95;4.30;;;23.40;30.20;;;;;;5084646;28;20043;-84
2022/03/18 07:07:35;;;;;;;6.80;4.73;;;23.50;30.10;;;;;;5067307;28;20383;-86
2022/03/18 07:10:07;;;;;;;7.85;5.18;;;23.60;30.10;;;;;;5085396;28;20028;-88
2022/03/18 07:12:36;;;;;;;6.90;4.75;;;23.70;30.10;;;;;;5083612;28;20058;-87
2022/03/18 07:15:02;;;;;;;8.23;4.60;;;23.80;30.10;;;;;;5080459;28;20435;-87
2022/03/18 07:20:13;;;;;;;6.03;4.38;;;23.90;30.00;;;;;;5085316;28;20051;-84
2022/03/18 07:22:44;;;;;;;7.47;4.40;;;24.00;29.90;;;;;;5086377;28;20036;-84
2022/03/18 07:25:14;;;;;;;9.60;4.70;;;24.00;30.00;;;;;;5083110;28;20127;-86
2022/03/18 07:27:47;;;;;;;26.15;6.50;;;23.70;30.50;;;;;;5066506;28;20086;-88
2022/03/18 07:30:13;;;;;;;28.27;6.53;;;23.30;31.20;;;;;;5059860;28;20143;-74
2022/03/18 07:32:38;;;;;;;25.10;6.63;;;22.90;33.20;;;;;;5078845;28;20016;-73
2022/03/18 07:35:08;;;;;;;28.25;6.30;;;22.90;32.40;;;;;;5079653;28;20477;-73
2022/03/18 07:37:34;;;;;;;21.17;5.72;;;22.90;32.20;;;;;;5079295;28;20031;-72
2022/03/18 07:39:59;;;;;;;21.27;5.65;;;22.50;32.00;;;;;;5079540;28;20028;-73
2022/03/18 07:42:25;;;;;;;17.20;6.20;;;22.60;32.00;;;;;;5079423;28;20485;-75
2022/03/18 07:44:51;;;;;;;18.80;5.35;;;22.60;31.80;;;;;;5079268;28;20066;-72
2022/03/18 07:47:17;;;;;;;16.45;5.50;;;22.50;31.90;;;;;;5078826;28;20035;-75
2022/03/18 07:49:43;;;;;;;16.55;6.03;;;22.50;31.70;;;;;;5078720;28;20501;-74
2022/03/18 07:52:09;;;;;;;15.55;6.00;;;22.60;31.50;;;;;;5078621;28;20024;-72
2022/03/18 07:54:34;;;;;;;16.45;5.80;;;22.70;31.60;;;;;;5078886;28;20477;-74
2022/03/18 07:57:00;;;;;;;13.77;5.53;;;22.80;31.10;;;;;;5096407;28;20377;-71
2022/03/18 07:59:29;;;;;;;15.05;5.30;;;22.80;31.00;;;;;;5061520;28;20101;-72
2022/03/18 08:01:54;;;;;;;13.73;5.30;;;22.80;30.90;;;;;;5078551;28;20034;-74
2022/03/18 08:04:21;;;;;;;16.77;5.55;;;22.80;30.70;;;;;;5096106;28;20017;-76
2022/03/18 08:06:46;;;;;;;15.43;5.53;;;22.90;30.60;;;;;;5077933;28;20020;-74
2022/03/18 08:09:13;;;;;;;11.55;5.10;;;22.90;30.60;;;;;;5078710;28;20035;-74
2022/03/18 08:11:38;;;;;;;16.88;5.70;;;22.90;30.50;;;;;;5077931;28;20393;-73
2022/03/18 08:14:07;;;;;;;16.02;5.70;;;22.40;30.40;;;;;;5077656;28;20008;-74
2022/03/18 08:16:38;;;;;;;17.05;4.85;;;21.80;31.10;;;;;;5077551;28;20470;-75
2022/03/18 08:19:11;;;;;;;12.63;4.72;;;22.10;31.30;;;;;;5076707;28;20067;-75
2022/03/18 08:21:37;;;;;;;13.55;4.60;;;22.50;30.40;;;;;;5076975;28;20463;-72
2022/03/18 08:24:04;;;;;;;12.52;4.47;;;22.70;29.90;;;;;;5059704;28;20368;-71
2022/03/18 08:26:30;;;;;;;13.70;4.47;;;22.90;29.40;;;;;;5076901;28;20107;-73
2022/03/18 08:28:59;;;;;;;13.07;4.32;;;23.00;29.10;;;;;;5076879;28;20541;-70
2022/03/18 08:31:29;;;;;;;12.50;3.88;;;23.20;28.70;;;;;;5076935;28;20441;-71
2022/03/18 08:33:56;;;;;;;9.35;3.70;;;23.30;28.50;;;;;;5060921;28;20383;-71
2022/03/18 08:36:22;;;;;;;10.18;4.03;;;23.30;28.20;;;;;;5077271;28;20027;-71
2022/03/18 08:38:47;;;;;;;12.18;3.95;;;23.40;28.00;;;;;;5061128;28;20020;-71
2022/03/18 08:41:14;;;;;;;9.85;3.95;;;23.50;27.90;;;;;;5095193;28;20154;-72
2022/03/18 08:43:39;;;;;;;9.68;3.95;;;23.50;27.90;;;;;;5077072;28;20016;-72
2022/03/18 08:46:08;;;;;;;12.30;3.90;;;23.40;27.90;;;;;;5060564;28;20020;-72
2022/03/18 08:48:33;;;;;;;8.65;3.83;;;23.30;27.80;;;;;;5077991;28;20028;-72
2022/03/18 08:50:59;;;;;;;10.68;3.65;;;23.30;28.20;;;;;;5077085;28;20020;-73
2022/03/18 08:53:28;;;;;;;9.73;3.35;;;23.30;27.70;;;;;;5077108;28;20074;-73
2022/03/18 08:55:56;;;;;;;11.52;3.83;;;23.30;27.50;;;;;;5077603;28;20012;-71
2022/03/18 08:58:24;;;;;;;9.02;3.63;;;23.30;27.50;;;;;;5076435;28;20031;-73
2022/03/18 09:00:51;;;;;;;10.18;3.40;;;23.40;27.50;;;;;;5059653;28;20032;-72
2022/03/18 09:03:22;;;;;;;9.05;3.17;;;23.40;27.40;;;;;;5076518;28;20095;-73
2022/03/18 09:05:49;;;;;;;10.93;3.40;;;23.40;27.40;;;;;;5076868;28;20363;-72
2022/03/18 09:08:17;;;;;;;10.77;3.20;;;23.30;27.80;;;;;;5076961;28;20024;-72
2022/03/18 09:10:43;;;;;;;9.25;3.70;;;23.40;27.30;;;;;;5077372;28;20024;-72
2022/03/18 09:13:09;;;;;;;11.80;3.47;;;23.30;27.40;;;;;;5060885;28;20115;-72
2022/03/18 09:16:22;;;;;;;16.85;4.70;;;23.20;27.80;;;;;;5061737;28;20024;-73
2022/03/18 09:18:55;;;;;;;21.92;4.22;;;21.20;30.70;;;;;;5089781;28;20127;-76
2022/03/18 09:21:21;;;;;;;;;;;21.40;31.50;;;;;;5057545;28;20368;-72
2022/03/18 09:23:47;;;;;;;33.70;5.47;;;21.30;31.30;;;;;;5073575;28;19901;-72
2022/03/18 09:26:14;;;;;;;27.33;4.68;;;21.80;31.40;;;;;;5075193;28;20331;-72
2022/03/18 09:28:40;;;;;;;23.13;4.57;;;22.10;30.90;;;;;;5040058;28;20510;-71
2022/03/18 09:31:06;;;;;;;17.02;4.10;;;22.20;30.40;;;;;;5056637;28;20017;-73
2022/03/18 09:33:32;;;;;;;20.88;4.32;;;22.30;30.00;;;;;;5072888;28;20013;-71
2022/03/18 09:35:58;;;;;;;11.70;3.88;;;22.30;29.80;;;;;;5073081;28;20016;-71
2022/03/18 09:38:27;;;;;;;9.68;3.30;;;22.40;29.40;;;;;;5056124;28;20123;-72
2022/03/18 09:40:54;;;;;;;10.88;3.42;;;22.20;29.70;;;;;;5056071;28;20028;-70
2022/03/18 09:43:21;;;;;;;13.63;3.58;;;22.20;30.00;;;;;;5074337;28;20074;-71
2022/03/18 09:45:47;;;;;;;8.68;3.33;;;21.80;30.10;;;;;;5072794;28;20016;-71
2022/03/18 09:48:13;;;;;;;11.23;3.47;;;21.90;29.70;;;;;;5072647;28;20025;-69
2022/03/18 09:50:40;;;;;;;10.88;3.63;;;21.90;29.60;;;;;;5072609;28;20020;-70
2022/03/18 09:53:06;;;;;;;10.25;2.83;;;22.00;29.30;;;;;;5055762;28;20017;-70
2022/03/18 09:55:34;;;;;;;10.38;2.90;;;22.10;29.40;;;;;;5056292;28;20108;-69
2022/03/18 09:58:00;;;;;;;6.63;2.53;;;22.30;29.20;;;;;;5074356;28;20028;-72
2022/03/18 10:00:28;;;;;;;11.20;2.80;;;22.10;28.90;;;;;;5073079;28;20057;-71
2022/03/18 10:03:16;;;;;;;5.78;2.65;;;22.00;28.60;;;;;;5074005;28;20040;-74
2022/03/18 10:05:58;;;;;;;6.80;2.20;;;22.10;28.70;;;;;;5073736;28;20059;-71
2022/03/18 10:08:27;;;;;;;10.23;2.40;;;22.20;28.40;;;;;;5075423;28;20039;-72
2022/03/18 10:10:53;;;;;;;8.93;2.47;;;21.50;28.50;;;;;;5057730;28;20051;-71
2022/03/18 10:13:20;;;;;;;11.02;2.50;;;21.70;27.90;;;;;;5087174;22;20309;-37
2022/03/18 10:15:46;;;;;;;7.82;1.80;;;22.20;28.50;;;;;;5093968;28;20009;-36
2022/03/18 10:18:13;;;;;;;11.27;2.00;;;22.80;28.50;;;;;;5094005;28;20490;-37
2022/03/18 10:20:42;;;;;;;12.65;2.35;;;23.20;28.50;;;;;;5094924;28;20121;-37
2022/03/18 10:23:15;;;;;;;15.20;2.50;;;23.50;28.40;;;;;;5094425;28;20024;-36
2022/03/18 10:25:52;;;;;;;12.07;1.88;;;23.80;28.30;;;;;;5094135;28;20034;-37
2022/03/18 10:28:37;;;;;;;8.35;1.80;;;24.00;28.30;;;;;;5075612;28;20020;-37
2022/03/18 10:31:19;;;;;;;8.52;1.80;;;24.30;28.10;;;;;;5093655;28;20422;-38
2022/03/18 10:39:30;;;;;;;4.72;1.40;;;24.80;28.20;;;;;;5079062;28;20066;-38
2022/03/18 10:42:03;;;;;;;10.40;2.05;;;24.80;28.10;;;;;;5093135;28;20120;-38
2022/03/18 10:44:48;;;;;;;7.63;2.00;;;24.90;28.10;;;;;;5092224;28;20011;-37
2022/03/18 10:47:32;;;;;;;11.05;2.05;;;25.00;28.20;;;;;;5092316;28;20018;-38
2022/03/18 10:50:09;;;;;;;8.13;2.30;;;25.10;28.20;;;;;;5073214;28;20043;-38
2022/03/18 10:52:38;;;;;;;8.40;1.90;;;25.10;28.10;;;;;;5092566;28;20069;-38
2022/03/18 10:55:20;;;;;;;11.32;1.85;;;25.20;28.60;;;;;;5074993;28;20020;-38
2022/03/18 10:57:56;;;;;;;6.38;1.75;;;25.30;28.10;;;;;;5092226;28;20014;-39
2022/03/18 11:00:23;;;;;;;11.00;1.65;;;25.30;28.10;;;;;;5075924;28;20048;-48
2022/03/18 11:02:53;;;;;;;12.20;1.85;;;25.20;28.10;;;;;;5095850;28;20027;-46
2022/03/18 11:05:21;;;;;;;8.32;1.70;;;25.20;28.00;;;;;;5077878;28;20020;-46
2022/03/18 11:07:50;;;;;;;6.88;1.55;;;25.20;27.80;;;;;;5077663;28;20039;-41
2022/03/18 11:13:02;;;;;;;11.43;2.20;;;25.20;27.60;;;;;;5080083;28;20135;-41
2022/03/18 11:15:28;;;;;;;9.02;1.85;;;23.10;26.90;;;;;;5096094;28;20004;-36
2022/03/18 11:17:55;;;;;;;6.43;1.65;;;21.40;28.00;;;;;;5097067;28;20142;-35
2022/03/18 11:20:23;;;;;;;10.00;2.45;;;20.60;28.70;;;;;;5078224;28;20103;-37
2022/03/18 11:22:49;;;;;;;8.02;1.83;;;20.50;28.60;;;;;;5095222;28;20057;-37
2022/03/18 11:25:15;;;;;;;10.27;2.25;;;20.30;28.80;;;;;;5075218;28;20144;-36
2022/03/18 11:27:44;;;;;;;9.10;1.92;;;20.00;28.90;;;;;;5075927;28;20012;-36
2022/03/18 11:30:19;;;;;;;7.50;1.77;;;19.80;29.30;;;;;;5094438;28;20028;-40
2022/03/18 11:33:10;;;;;;;7.82;2.05;;;19.70;29.30;;;;;;5094931;28;20022;-37
2022/03/18 11:35:48;;;;;;;9.45;2.22;;;19.30;29.30;;;;;;5093998;28;20012;-37
2022/03/18 11:38:18;;;;;;;9.93;1.95;;;19.10;30.00;;;;;;5093806;28;20089;-38
2022/03/18 11:41:02;;;;;;;6.95;2.17;;;19.10;30.20;;;;;;5094486;28;20016;-38
2022/03/18 11:43:48;;;;;;;7.50;1.90;;;19.40;29.60;;;;;;5076322;28;20050;-36
2022/03/18 11:46:14;;;;;;;5.18;1.77;;;18.50;30.40;;;;;;5092503;28;20025;-38
2022/03/18 11:48:58;;;;;;;8.00;2.63;;;18.90;30.10;;;;;;5090950;28;20032;-35
2022/03/18 11:51:35;;;;;;;6.85;2.40;;;19.20;29.60;;;;;;5072280;28;20121;-35
2022/03/18 11:54:12;;;;;;;6.53;2.38;;;18.20;31.20;;;;;;5091104;28;20043;-34
2022/03/18 11:56:54;;;;;;;7.90;2.50;;;17.60;32.50;;;;;;5091495;28;20032;-35
2022/03/18 11:59:25;;;;;;;6.70;2.13;;;18.10;32.00;;;;;;5091193;28;20044;-36
2022/03/18 12:02:01;;;;;;;7.65;2.15;;;18.70;31.40;;;;;;5090937;28;20188;-35
2022/03/18 12:04:40;;;;;;;6.75;2.17;;;19.00;30.90;;;;;;5091522;28;20015;-37
2022/03/18 12:07:27;;;;;;;5.35;2.13;;;19.10;30.90;;;;;;5073143;28;20020;-37
2022/03/18 12:09:55;;;;;;;8.15;1.95;;;18.90;30.70;;;;;;5090845;28;20024;-38
2022/03/18 12:12:23;;;;;;;7.72;2.22;;;19.00;31.30;;;;;;5090338;28;20051;-38
2022/03/18 12:14:49;;;;;;;6.72;2.28;;;18.70;31.10;;;;;;5089902;28;20055;-38
2022/03/18 12:17:16;;;;;;;6.32;2.30;;;17.80;31.90;;;;;;5073985;28;20133;-37
2022/03/18 12:19:50;;;;;;;9.15;2.38;;;18.20;31.60;;;;;;5076642;28;20024;-38
2022/03/18 12:22:19;;;;;;;9.73;2.47;;;18.30;31.40;;;;;;5075982;28;20016;-37
2022/03/18 12:24:47;;;;;;;7.95;1.92;;;17.30;33.30;;;;;;5076258;28;20053;-39
2022/03/18 12:27:13;;;;;;;7.82;1.60;;;18.50;32.80;;;;;;5094996;28;20046;-38
2022/03/18 12:29:41;;;;;;;6.95;1.70;;;19.60;31.40;;;;;;5075913;28;20084;-36
2022/03/18 12:32:09;;;;;;;7.50;1.75;;;19.90;29.60;;;;;;5094433;28;20100;-37
2022/03/18 12:34:36;;;;;;;7.00;1.98;;;19.70;30.10;;;;;;5092723;28;20094;-36
2022/03/18 12:37:03;;;;;;;6.75;1.77;;;19.70;30.20;;;;;;5076192;28;20047;-39
2022/03/18 12:39:29;;;;;;;10.85;1.88;;;20.00;30.50;;;;;;5074917;28;20035;-35
2022/03/18 12:42:09;;;;;;;7.82;1.80;;;20.70;29.60;;;;;;5077893;28;20076;-37
2022/03/18 12:44:34;;;;;;;9.68;1.90;;;20.70;28.80;;;;;;5080480;28;20020;-37
2022/03/18 12:47:00;;;;;;;8.05;1.40;;;20.10;28.70;;;;;;5080820;28;20024;-38
2022/03/18 12:49:35;;;;;;;8.23;1.40;;;19.50;29.60;;;;;;5098074;28;20024;-38
2022/03/18 12:52:06;;;;;;;6.60;1.40;;;20.20;29.60;;;;;;5097636;28;20095;-37
2022/03/18 12:54:33;;;;;;;6.18;1.50;;;20.80;28.80;;;;;;5097034;28;20012;-37
2022/03/18 12:56:58;;;;;;;6.55;1.40;;;21.30;28.60;;;;;;5078885;28;20016;-40
2022/03/18 12:59:24;;;;;;;12.02;1.75;;;21.70;27.80;;;;;;5097212;28;20377;-38
2022/03/18 13:01:54;;;;;;;11.32;1.50;;;21.80;27.40;;;;;;5096226;28;20020;-37
2022/03/18 13:04:20;;;;;;;6.93;1.73;;;21.30;28.00;;;;;;5097594;28;20016;-41
2022/03/18 13:06:53;;;;;;;7.45;1.50;;;21.30;27.70;;;;;;5079900;28;20051;-36
2022/03/18 13:09:19;;;;;;;7.22;1.63;;;21.40;28.10;;;;;;5097790;28;20076;-39
2022/03/18 13:11:45;;;;;;;8.15;1.58;;;21.40;27.60;;;;;;5079520;28;20051;-42
2022/03/18 13:14:12;;;;;;;5.40;1.42;;;21.60;27.70;;;;;;5097043;28;20354;-35
2022/03/18 13:16:41;;;;;;;6.50;1.75;;;21.90;27.50;;;;;;5079601;28;20093;-35
2022/03/18 13:19:10;;;;;;;7.97;1.75;;;21.40;27.20;;;;;;5097482;28;20035;-35
2022/03/18 13:21:47;;;;;;;7.35;1.80;;;21.00;28.00;;;;;;5097238;28;20015;-34